sensor_id;sensor_type;location;lat;lon;timestamp;P1;durP1;ratioP1;P2;durP2;ratioP2
9324;SDS011;4701;51.566;6.776;2022-10-16T05:00:37;4.30;;;2.77;;
9324;SDS011;4701;51.566;6.776;2022-10-16T05:02:39;4.50;;;2.57;;
9324;SDS011;4701;51.566;6.776;2022-10-16T05:04:41;8.43;;;5.23;;
9324;SDS011;4701;51.566;6.776;2022-10-16T05:06:42;5.53;;;2.83;;
9324;SDS011;4701;51.566;6.776;2022-10-16T05:08:44;3.80;;;3.10;;
9324;SDS011;4701;51.566;6.776;2022-10-16T05:10:46;5.63;;;3.90;;
9324;SDS011;4701;51.566;6.776;2022-10-16T05:12:48;10.40;;;3.63;;
9324;SDS011;4701;51.566;6.776;2022-10-16T05:14:50;9.23;;;3.80;;
9324;SDS011;4701;51.566;6.776;2022-10-16T05:16:53;7.87;;;3.57;;
9324;SDS011;4701;51.566;6.776;2022-10-16T05:18:54;6.13;;;3.40;;
9324;SDS011;4701;51.566;6.776;2022-10-16T05:20:56;8.97;;;3.57;;
9324;SDS011;4701;51.566;6.776;2022-10-16T05:22:58;8.90;;;4.07;;
9324;SDS011;4701;51.566;6.776;2022-10-16T05:25:00;6.67;;;3.10;;
9324;SDS011;4701;51.566;6.776;2022-10-16T05:27:02;6.23;;;3.30;;
9324;SDS011;4701;51.566;6.776;2022-10-16T05:29:04;9.60;;;4.97;;
9324;SDS011;4701;51.566;6.776;2022-10-16T05:31:06;8.43;;;4.27;;
9324;SDS011;4701;51.566;6.776;2022-10-16T05:33:09;9.27;;;4.10;;
9324;SDS011;4701;51.566;6.776;2022-10-16T05:35:11;6.57;;;4.47;;
9324;SDS011;4701;51.566;6.776;2022-10-16T05:37:13;6.40;;;3.50;;
9324;SDS011;4701;51.566;6.776;2022-10-16T05:39:15;7.60;;;3.40;;
9324;SDS011;4701;51.566;6.776;2022-10-16T05:41:17;12.20;;;6.73;;
9324;SDS011;4701;51.566;6.776;2022-10-16T05:43:21;8.63;;;5.17;;
9324;SDS011;4701;51.566;6.776;2022-10-16T05:45:23;8.60;;;4.53;;
9324;SDS011;4701;51.566;6.776;2022-10-16T05:47:25;12.03;;;7.27;;
9324;SDS011;4701;51.566;6.776;2022-10-16T05:49:28;7.77;;;3.43;;
9324;SDS011;4701;51.566;6.776;2022-10-16T05:51:31;4.60;;;2.83;;
9324;SDS011;4701;51.566;6.776;2022-10-16T05:53:34;4.17;;;2.63;;
9324;SDS011;4701;51.566;6.776;2022-10-16T05:55:36;5.20;;;2.70;;
9324;SDS011;4701;51.566;6.776;2022-10-16T05:57:38;7.17;;;2.73;;
9324;SDS011;4701;51.566;6.776;2022-10-16T05:59:40;4.50;;;2.60;;
9324;SDS011;4701;51.566;6.776;2022-10-16T06:01:42;6.27;;;2.53;;
9324;SDS011;4701;51.566;6.776;2022-10-16T06:03:43;8.67;;;3.33;;
9324;SDS011;4701;51.566;6.776;2022-10-16T06:05:47;5.67;;;4.13;;
9324;SDS011;4701;51.566;6.776;2022-10-16T06:07:49;3.80;;;2.10;;
9324;SDS011;4701;51.566;6.776;2022-10-16T06:09:51;5.10;;;3.50;;
9324;SDS011;4701;51.566;6.776;2022-10-16T06:11:53;7.30;;;2.80;;
9324;SDS011;4701;51.566;6.776;2022-10-16T06:13:56;4.80;;;2.93;;
9324;SDS011;4701;51.566;6.776;2022-10-16T06:15:59;4.73;;;4.13;;
9324;SDS011;4701;51.566;6.776;2022-10-16T06:18:01;5.83;;;3.03;;
9324;SDS011;4701;51.566;6.776;2022-10-16T06:20:04;7.63;;;5.43;;
9324;SDS011;4701;51.566;6.776;2022-10-16T06:22:07;7.63;;;4.00;;
9324;SDS011;4701;51.566;6.776;2022-10-16T06:24:09;8.17;;;4.10;;
9324;SDS011;4701;51.566;6.776;2022-10-16T06:26:12;8.07;;;4.60;;
9324;SDS011;4701;51.566;6.776;2022-10-16T06:28:15;7.73;;;4.37;;
9324;SDS011;4701;51.566;6.776;2022-10-16T06:30:17;8.90;;;4.73;;
9324;SDS011;4701;51.566;6.776;2022-10-16T06:32:19;5.97;;;4.40;;
9324;SDS011;4701;51.566;6.776;2022-10-16T06:34:21;9.73;;;4.77;;
9324;SDS011;4701;51.566;6.776;2022-10-16T06:36:23;6.87;;;4.70;;
9324;SDS011;4701;51.566;6.776;2022-10-16T06:38:27;9.80;;;4.33;;
9324;SDS011;4701;51.566;6.776;2022-10-16T06:40:29;13.67;;;4.80;;
9324;SDS011;4701;51.566;6.776;2022-10-16T06:42:31;6.63;;;4.00;;
9324;SDS011;4701;51.566;6.776;2022-10-16T06:44:33;8.97;;;3.90;;
9324;SDS011;4701;51.566;6.776;2022-10-16T06:46:34;4.70;;;3.67;;
9324;SDS011;4701;51.566;6.776;2022-10-16T06:48:37;8.13;;;4.07;;
9324;SDS011;4701;51.566;6.776;2022-10-16T06:50:39;5.77;;;3.80;;
9324;SDS011;4701;51.566;6.776;2022-10-16T06:52:41;8.90;;;5.43;;
9324;SDS011;4701;51.566;6.776;2022-10-16T06:54:44;9.17;;;4.50;;
9324;SDS011;4701;51.566;6.776;2022-10-16T06:56:46;8.90;;;5.43;;
9324;SDS011;4701;51.566;6.776;2022-10-16T06:58:48;7.73;;;4.47;;
9324;SDS011;4701;51.566;6.776;2022-10-16T07:00:54;6.93;;;3.50;;
9324;SDS011;4701;51.566;6.776;2022-10-16T07:02:57;5.33;;;3.77;;
9324;SDS011;4701;51.566;6.776;2022-10-16T07:04:58;6.33;;;3.57;;
9324;SDS011;4701;51.566;6.776;2022-10-16T07:07:00;5.97;;;3.20;;
9324;SDS011;4701;51.566;6.776;2022-10-16T07:09:04;4.37;;;2.57;;
9324;SDS011;4701;51.566;6.776;2022-10-16T07:11:10;6.03;;;2.80;;
9324;SDS011;4701;51.566;6.776;2022-10-16T07:13:13;4.00;;;2.40;;
9324;SDS011;4701;51.566;6.776;2022-10-16T07:15:15;9.67;;;2.77;;
9324;SDS011;4701;51.566;6.776;2022-10-16T07:17:17;7.00;;;2.90;;
9324;SDS011;4701;51.566;6.776;2022-10-16T07:19:19;3.53;;;2.37;;
9324;SDS011;4701;51.566;6.776;2022-10-16T07:21:21;3.03;;;2.50;;
9324;SDS011;4701;51.566;6.776;2022-10-16T07:23:25;3.87;;;2.40;;
9324;SDS011;4701;51.566;6.776;2022-10-16T07:25:27;5.60;;;2.90;;
9324;SDS011;4701;51.566;6.776;2022-10-16T07:27:30;3.50;;;2.20;;
9324;SDS011;4701;51.566;6.776;2022-10-16T07:29:32;3.53;;;2.57;;
9324;SDS011;4701;51.566;6.776;2022-10-16T07:31:34;3.20;;;2.23;;
9324;SDS011;4701;51.566;6.776;2022-10-16T07:33:36;3.80;;;2.37;;
9324;SDS011;4701;51.566;6.776;2022-10-16T07:35:46;5.80;;;2.40;;
9324;SDS011;4701;51.566;6.776;2022-10-16T07:37:49;3.50;;;2.43;;
9324;SDS011;4701;51.566;6.776;2022-10-16T07:39:50;3.60;;;2.40;;
9324;SDS011;4701;51.566;6.776;2022-10-16T07:41:52;4.73;;;2.20;;
9324;SDS011;4701;51.566;6.776;2022-10-16T07:43:55;3.47;;;2.00;;
9324;SDS011;4701;51.566;6.776;2022-10-16T07:46:00;4.03;;;2.30;;
9324;SDS011;4701;51.566;6.776;2022-10-16T07:48:02;5.63;;;2.53;;
9324;SDS011;4701;51.566;6.776;2022-10-16T07:50:04;8.00;;;2.90;;
9324;SDS011;4701;51.566;6.776;2022-10-16T07:52:06;3.90;;;2.77;;
9324;SDS011;4701;51.566;6.776;2022-10-16T07:54:08;3.97;;;2.37;;
9324;SDS011;4701;51.566;6.776;2022-10-16T07:56:10;6.13;;;2.10;;
9324;SDS011;4701;51.566;6.776;2022-10-16T07:58:12;7.70;;;2.70;;
9324;SDS011;4701;51.566;6.776;2022-10-16T08:00:16;3.00;;;2.23;;
9324;SDS011;4701;51.566;6.776;2022-10-16T08:02:17;4.40;;;2.00;;
9324;SDS011;4701;51.566;6.776;2022-10-16T08:04:19;3.63;;;1.97;;
9324;SDS011;4701;51.566;6.776;2022-10-16T08:06:21;2.20;;;1.80;;
9324;SDS011;4701;51.566;6.776;2022-10-16T08:08:24;3.23;;;1.87;;
9324;SDS011;4701;51.566;6.776;2022-10-16T08:10:26;3.57;;;1.90;;
9324;SDS011;4701;51.566;6.776;2022-10-16T08:12:30;5.07;;;1.67;;
9324;SDS011;4701;51.566;6.776;2022-10-16T08:14:32;6.17;;;3.80;;
9324;SDS011;4701;51.566;6.776;2022-10-16T08:16:35;9.53;;;6.90;;
9324;SDS011;4701;51.566;6.776;2022-10-16T08:18:37;5.13;;;2.70;;
9324;SDS011;4701;51.566;6.776;2022-10-16T08:20:40;5.80;;;1.77;;
9324;SDS011;4701;51.566;6.776;2022-10-16T08:22:42;3.03;;;1.87;;
9324;SDS011;4701;51.566;6.776;2022-10-16T08:24:44;2.77;;;1.77;;
9324;SDS011;4701;51.566;6.776;2022-10-16T08:26:46;4.60;;;2.00;;
9324;SDS011;4701;51.566;6.776;2022-10-16T08:28:49;3.47;;;1.77;;
9324;SDS011;4701;51.566;6.776;2022-10-16T08:30:51;3.33;;;1.90;;
9324;SDS011;4701;51.566;6.776;2022-10-16T08:32:54;3.57;;;1.50;;
9324;SDS011;4701;51.566;6.776;2022-10-16T08:34:56;5.10;;;1.90;;
9324;SDS011;4701;51.566;6.776;2022-10-16T08:36:57;5.17;;;2.67;;
9324;SDS011;4701;51.566;6.776;2022-10-16T08:38:59;4.50;;;1.90;;
9324;SDS011;4701;51.566;6.776;2022-10-16T08:41:07;3.33;;;1.80;;
9324;SDS011;4701;51.566;6.776;2022-10-16T08:43:26;1.73;;;1.40;;
9324;SDS011;4701;51.566;6.776;2022-10-16T08:45:41;4.83;;;2.23;;
9324;SDS011;4701;51.566;6.776;2022-10-16T08:47:50;2.33;;;1.60;;
9324;SDS011;4701;51.566;6.776;2022-10-16T08:50:08;4.57;;;1.57;;
9324;SDS011;4701;51.566;6.776;2022-10-16T08:52:11;3.60;;;1.60;;
9324;SDS011;4701;51.566;6.776;2022-10-16T08:54:18;4.70;;;1.50;;
9324;SDS011;4701;51.566;6.776;2022-10-16T08:56:24;4.37;;;1.63;;
9324;SDS011;4701;51.566;6.776;2022-10-16T08:58:28;2.20;;;1.30;;
9324;SDS011;4701;51.566;6.776;2022-10-16T09:00:31;2.80;;;1.63;;
9324;SDS011;4701;51.566;6.776;2022-10-16T09:02:35;2.47;;;1.30;;
9324;SDS011;4701;51.566;6.776;2022-10-16T09:04:45;5.87;;;1.70;;
9324;SDS011;4701;51.566;6.776;2022-10-16T09:06:56;7.50;;;1.70;;
9324;SDS011;4701;51.566;6.776;2022-10-16T09:09:11;4.57;;;2.00;;
9324;SDS011;4701;51.566;6.776;2022-10-16T09:11:29;2.33;;;1.60;;
9324;SDS011;4701;51.566;6.776;2022-10-16T09:13:43;4.37;;;1.57;;
9324;SDS011;4701;51.566;6.776;2022-10-16T09:15:53;4.47;;;1.50;;
9324;SDS011;4701;51.566;6.776;2022-10-16T09:18:05;2.50;;;1.50;;
9324;SDS011;4701;51.566;6.776;2022-10-16T09:20:16;7.77;;;2.17;;
9324;SDS011;4701;51.566;6.776;2022-10-16T09:22:22;3.03;;;1.60;;
9324;SDS011;4701;51.566;6.776;2022-10-16T09:24:29;7.87;;;2.77;;
9324;SDS011;4701;51.566;6.776;2022-10-16T09:26:31;5.70;;;2.03;;
9324;SDS011;4701;51.566;6.776;2022-10-16T09:28:33;2.87;;;1.40;;
9324;SDS011;4701;51.566;6.776;2022-10-16T09:30:34;4.30;;;1.23;;
9324;SDS011;4701;51.566;6.776;2022-10-16T09:32:37;3.90;;;1.20;;
9324;SDS011;4701;51.566;6.776;2022-10-16T09:34:41;2.67;;;1.27;;
9324;SDS011;4701;51.566;6.776;2022-10-16T09:36:48;2.77;;;1.50;;
9324;SDS011;4701;51.566;6.776;2022-10-16T09:39:00;3.70;;;1.40;;
9324;SDS011;4701;51.566;6.776;2022-10-16T09:41:11;3.17;;;1.37;;
9324;SDS011;4701;51.566;6.776;2022-10-16T09:43:19;3.67;;;1.37;;
9324;SDS011;4701;51.566;6.776;2022-10-16T09:45:24;2.80;;;1.47;;
9324;SDS011;4701;51.566;6.776;2022-10-16T09:47:26;3.40;;;1.00;;
9324;SDS011;4701;51.566;6.776;2022-10-16T09:49:30;6.23;;;1.40;;
9324;SDS011;4701;51.566;6.776;2022-10-16T09:51:32;2.87;;;1.30;;
9324;SDS011;4701;51.566;6.776;2022-10-16T09:53:40;2.50;;;1.83;;
9324;SDS011;4701;51.566;6.776;2022-10-16T09:55:50;4.20;;;1.30;;
9324;SDS011;4701;51.566;6.776;2022-10-16T09:57:53;3.23;;;1.20;;
9324;SDS011;4701;51.566;6.776;2022-10-16T09:59:56;4.13;;;1.40;;
9324;SDS011;4701;51.566;6.776;2022-10-16T10:02:01;4.03;;;1.10;;
9324;SDS011;4701;51.566;6.776;2022-10-16T10:04:05;2.43;;;1.20;;
9324;SDS011;4701;51.566;6.776;2022-10-16T10:06:15;5.00;;;1.83;;
9324;SDS011;4701;51.566;6.776;2022-10-16T10:08:20;4.50;;;1.93;;
9324;SDS011;4701;51.566;6.776;2022-10-16T10:10:24;2.53;;;1.10;;
9324;SDS011;4701;51.566;6.776;2022-10-16T10:12:27;2.23;;;1.10;;
9324;SDS011;4701;51.566;6.776;2022-10-16T10:14:34;3.20;;;1.20;;
9324;SDS011;4701;51.566;6.776;2022-10-16T10:16:38;3.00;;;1.07;;
9324;SDS011;4701;51.566;6.776;2022-10-16T10:18:40;2.00;;;1.10;;
9324;SDS011;4701;51.566;6.776;2022-10-16T10:20:42;2.83;;;0.93;;
9324;SDS011;4701;51.566;6.776;2022-10-16T10:22:44;2.20;;;1.07;;
9324;SDS011;4701;51.566;6.776;2022-10-16T10:24:54;2.47;;;1.30;;
9324;SDS011;4701;51.566;6.776;2022-10-16T10:26:59;1.23;;;1.00;;
9324;SDS011;4701;51.566;6.776;2022-10-16T10:29:06;2.93;;;1.07;;
9324;SDS011;4701;51.566;6.776;2022-10-16T10:31:20;2.73;;;1.07;;
9324;SDS011;4701;51.566;6.776;2022-10-16T10:33:28;2.20;;;1.17;;
9324;SDS011;4701;51.566;6.776;2022-10-16T10:35:41;4.27;;;1.00;;
9324;SDS011;4701;51.566;6.776;2022-10-16T10:37:50;2.73;;;0.80;;
9324;SDS011;4701;51.566;6.776;2022-10-16T10:40:05;4.57;;;1.10;;
9324;SDS011;4701;51.566;6.776;2022-10-16T10:42:20;1.63;;;0.90;;
9324;SDS011;4701;51.566;6.776;2022-10-16T10:46:57;2.37;;;1.07;;
9324;SDS011;4701;51.566;6.776;2022-10-16T10:49:13;2.20;;;0.87;;
9324;SDS011;4701;51.566;6.776;2022-10-16T10:51:38;2.43;;;1.03;;
9324;SDS011;4701;51.566;6.776;2022-10-16T10:53:51;2.00;;;0.90;;
9324;SDS011;4701;51.566;6.776;2022-10-16T10:56:04;3.13;;;1.13;;
9324;SDS011;4701;51.566;6.776;2022-10-16T10:58:27;2.90;;;1.10;;
9324;SDS011;4701;51.566;6.776;2022-10-16T11:00:48;1.77;;;0.93;;
9324;SDS011;4701;51.566;6.776;2022-10-16T11:03:00;4.70;;;1.10;;
9324;SDS011;4701;51.566;6.776;2022-10-16T11:07:43;4.07;;;1.50;;
9324;SDS011;4701;51.566;6.776;2022-10-16T11:09:51;3.33;;;0.93;;
9324;SDS011;4701;51.566;6.776;2022-10-16T11:11:56;3.27;;;1.00;;
9324;SDS011;4701;51.566;6.776;2022-10-16T11:14:04;3.40;;;0.93;;
9324;SDS011;4701;51.566;6.776;2022-10-16T11:16:13;3.73;;;1.10;;
9324;SDS011;4701;51.566;6.776;2022-10-16T11:18:20;2.43;;;1.00;;
9324;SDS011;4701;51.566;6.776;2022-10-16T11:20:25;3.77;;;0.87;;
9324;SDS011;4701;51.566;6.776;2022-10-16T11:22:31;3.17;;;0.90;;
9324;SDS011;4701;51.566;6.776;2022-10-16T11:24:40;5.23;;;1.00;;
9324;SDS011;4701;51.566;6.776;2022-10-16T11:26:45;3.93;;;1.00;;
9324;SDS011;4701;51.566;6.776;2022-10-16T11:28:49;5.07;;;1.00;;
9324;SDS011;4701;51.566;6.776;2022-10-16T11:30:57;2.63;;;0.90;;
9324;SDS011;4701;51.566;6.776;2022-10-16T11:33:09;2.33;;;0.80;;
9324;SDS011;4701;51.566;6.776;2022-10-16T11:35:22;2.77;;;1.00;;
9324;SDS011;4701;51.566;6.776;2022-10-16T11:37:32;3.17;;;1.00;;
9324;SDS011;4701;51.566;6.776;2022-10-16T11:39:40;2.40;;;0.80;;
9324;SDS011;4701;51.566;6.776;2022-10-16T11:41:44;3.57;;;1.23;;
9324;SDS011;4701;51.566;6.776;2022-10-16T11:43:52;3.47;;;1.00;;
9324;SDS011;4701;51.566;6.776;2022-10-16T11:46:05;3.53;;;0.93;;
9324;SDS011;4701;51.566;6.776;2022-10-16T11:48:15;2.27;;;1.20;;
9324;SDS011;4701;51.566;6.776;2022-10-16T11:50:25;5.43;;;1.40;;
9324;SDS011;4701;51.566;6.776;2022-10-16T11:52:33;2.83;;;0.80;;
9324;SDS011;4701;51.566;6.776;2022-10-16T11:54:43;4.40;;;0.90;;
9324;SDS011;4701;51.566;6.776;2022-10-16T11:56:50;2.50;;;1.10;;
9324;SDS011;4701;51.566;6.776;2022-10-16T11:58:57;3.50;;;1.10;;
9324;SDS011;4701;51.566;6.776;2022-10-16T12:01:06;3.50;;;0.90;;
9324;SDS011;4701;51.566;6.776;2022-10-16T12:03:19;2.73;;;0.90;;
9324;SDS011;4701;51.566;6.776;2022-10-16T12:05:28;3.13;;;1.33;;
9324;SDS011;4701;51.566;6.776;2022-10-16T12:07:41;1.77;;;0.90;;
9324;SDS011;4701;51.566;6.776;2022-10-16T12:09:51;2.33;;;1.07;;
9324;SDS011;4701;51.566;6.776;2022-10-16T12:11:53;3.67;;;1.00;;
9324;SDS011;4701;51.566;6.776;2022-10-16T12:14:03;1.73;;;1.15;;
9324;SDS011;4701;51.566;6.776;2022-10-16T12:16:20;2.83;;;1.00;;
9324;SDS011;4701;51.566;6.776;2022-10-16T12:18:25;1.40;;;0.73;;
9324;SDS011;4701;51.566;6.776;2022-10-16T12:20:28;1.77;;;0.97;;
9324;SDS011;4701;51.566;6.776;2022-10-16T12:22:32;2.00;;;0.80;;
9324;SDS011;4701;51.566;6.776;2022-10-16T12:24:35;4.07;;;1.20;;
9324;SDS011;4701;51.566;6.776;2022-10-16T12:26:38;4.10;;;1.23;;
9324;SDS011;4701;51.566;6.776;2022-10-16T12:28:41;2.93;;;1.00;;
9324;SDS011;4701;51.566;6.776;2022-10-16T12:30:52;2.53;;;0.83;;
9324;SDS011;4701;51.566;6.776;2022-10-16T12:32:56;2.83;;;0.90;;
9324;SDS011;4701;51.566;6.776;2022-10-16T12:34:59;2.63;;;1.10;;
9324;SDS011;4701;51.566;6.776;2022-10-16T12:37:07;4.83;;;1.20;;
9324;SDS011;4701;51.566;6.776;2022-10-16T12:39:16;3.60;;;0.97;;
9324;SDS011;4701;51.566;6.776;2022-10-16T12:41:26;4.47;;;1.33;;
9324;SDS011;4701;51.566;6.776;2022-10-16T12:43:36;1.80;;;0.90;;
9324;SDS011;4701;51.566;6.776;2022-10-16T12:45:42;1.90;;;0.70;;
9324;SDS011;4701;51.566;6.776;2022-10-16T12:47:49;5.03;;;0.90;;
9324;SDS011;4701;51.566;6.776;2022-10-16T12:49:55;4.13;;;1.20;;
9324;SDS011;4701;51.566;6.776;2022-10-16T12:51:57;2.00;;;0.80;;
9324;SDS011;4701;51.566;6.776;2022-10-16T12:54:00;1.73;;;0.97;;
9324;SDS011;4701;51.566;6.776;2022-10-16T12:56:04;1.23;;;0.80;;
9324;SDS011;4701;51.566;6.776;2022-10-16T12:58:20;2.43;;;1.20;;
9324;SDS011;4701;51.566;6.776;2022-10-16T13:00:42;3.43;;;1.03;;
9324;SDS011;4701;51.566;6.776;2022-10-16T13:05:33;2.33;;;0.87;;
9324;SDS011;4701;51.566;6.776;2022-10-16T13:07:48;1.90;;;0.70;;
9324;SDS011;4701;51.566;6.776;2022-10-16T13:10:02;2.57;;;0.70;;
9324;SDS011;4701;51.566;6.776;2022-10-16T13:12:14;2.93;;;0.90;;
9324;SDS011;4701;51.566;6.776;2022-10-16T13:14:27;3.93;;;3.07;;
9324;SDS011;4701;51.566;6.776;2022-10-16T13:16:49;7.07;;;4.77;;
9324;SDS011;4701;51.566;6.776;2022-10-16T13:19:01;4.53;;;1.60;;
9324;SDS011;4701;51.566;6.776;2022-10-16T13:21:18;2.10;;;0.90;;
9324;SDS011;4701;51.566;6.776;2022-10-16T13:23:29;1.90;;;1.33;;
9324;SDS011;4701;51.566;6.776;2022-10-16T13:25:40;2.77;;;0.93;;
9324;SDS011;4701;51.566;6.776;2022-10-16T13:27:55;4.53;;;1.10;;
9324;SDS011;4701;51.566;6.776;2022-10-16T13:30:09;1.47;;;0.93;;
9324;SDS011;4701;51.566;6.776;2022-10-16T13:32:15;2.27;;;0.90;;
9324;SDS011;4701;51.566;6.776;2022-10-16T13:34:17;4.93;;;1.00;;
9324;SDS011;4701;51.566;6.776;2022-10-16T13:36:24;3.87;;;0.90;;
9324;SDS011;4701;51.566;6.776;2022-10-16T13:38:29;2.93;;;1.10;;
9324;SDS011;4701;51.566;6.776;2022-10-16T13:40:32;3.93;;;1.17;;
9324;SDS011;4701;51.566;6.776;2022-10-16T13:42:35;2.53;;;1.20;;
9324;SDS011;4701;51.566;6.776;2022-10-16T13:44:38;3.17;;;1.13;;
9324;SDS011;4701;51.566;6.776;2022-10-16T13:46:44;2.87;;;1.00;;
9324;SDS011;4701;51.566;6.776;2022-10-16T13:48:55;1.83;;;1.03;;
9324;SDS011;4701;51.566;6.776;2022-10-16T13:50:59;1.83;;;0.80;;
9324;SDS011;4701;51.566;6.776;2022-10-16T13:53:12;2.70;;;1.20;;
9324;SDS011;4701;51.566;6.776;2022-10-16T13:55:15;1.87;;;0.80;;
9324;SDS011;4701;51.566;6.776;2022-10-16T13:57:18;3.40;;;1.10;;
9324;SDS011;4701;51.566;6.776;2022-10-16T13:59:24;2.10;;;0.90;;
9324;SDS011;4701;51.566;6.776;2022-10-16T14:01:29;2.77;;;1.00;;
9324;SDS011;4701;51.566;6.776;2022-10-16T14:03:33;2.50;;;1.47;;
9324;SDS011;4701;51.566;6.776;2022-10-16T14:05:40;2.43;;;1.00;;
9324;SDS011;4701;51.566;6.776;2022-10-16T14:07:48;2.80;;;0.90;;
9324;SDS011;4701;51.566;6.776;2022-10-16T14:09:53;2.80;;;1.20;;
9324;SDS011;4701;51.566;6.776;2022-10-16T14:11:57;4.37;;;0.90;;
9324;SDS011;4701;51.566;6.776;2022-10-16T14:14:01;8.30;;;1.20;;
9324;SDS011;4701;51.566;6.776;2022-10-16T14:16:05;2.63;;;1.00;;
9324;SDS011;4701;51.566;6.776;2022-10-16T14:18:13;2.23;;;1.03;;
9324;SDS011;4701;51.566;6.776;2022-10-16T14:20:22;2.43;;;0.93;;
9324;SDS011;4701;51.566;6.776;2022-10-16T14:22:29;4.00;;;1.10;;
9324;SDS011;4701;51.566;6.776;2022-10-16T14:24:33;3.33;;;1.00;;
9324;SDS011;4701;51.566;6.776;2022-10-16T14:26:41;3.70;;;1.20;;
9324;SDS011;4701;51.566;6.776;2022-10-16T14:28:44;3.10;;;0.90;;
9324;SDS011;4701;51.566;6.776;2022-10-16T14:30:51;2.27;;;1.00;;
9324;SDS011;4701;51.566;6.776;2022-10-16T14:32:55;2.20;;;1.07;;
9324;SDS011;4701;51.566;6.776;2022-10-16T14:34:58;1.00;;;0.80;;
9324;SDS011;4701;51.566;6.776;2022-10-16T14:37:00;3.60;;;1.13;;
9324;SDS011;4701;51.566;6.776;2022-10-16T14:39:14;4.27;;;1.00;;
9324;SDS011;4701;51.566;6.776;2022-10-16T14:41:20;2.40;;;0.87;;
9324;SDS011;4701;51.566;6.776;2022-10-16T14:43:26;2.93;;;1.10;;
9324;SDS011;4701;51.566;6.776;2022-10-16T14:45:33;2.17;;;1.20;;
9324;SDS011;4701;51.566;6.776;2022-10-16T14:47:36;3.50;;;1.13;;
9324;SDS011;4701;51.566;6.776;2022-10-16T14:49:49;12.00;;;9.60;;
9324;SDS011;4701;51.566;6.776;2022-10-16T14:51:52;4.27;;;1.30;;
9324;SDS011;4701;51.566;6.776;2022-10-16T14:53:54;6.80;;;4.10;;
9324;SDS011;4701;51.566;6.776;2022-10-16T14:55:55;5.07;;;1.60;;
9324;SDS011;4701;51.566;6.776;2022-10-16T14:57:57;3.13;;;1.70;;
9324;SDS011;4701;51.566;6.776;2022-10-16T15:00:00;4.60;;;1.10;;
9324;SDS011;4701;51.566;6.776;2022-10-16T15:02:06;1.67;;;1.00;;
9324;SDS011;4701;51.566;6.776;2022-10-16T15:04:20;2.83;;;1.53;;
9324;SDS011;4701;51.566;6.776;2022-10-16T15:06:22;3.77;;;1.40;;
9324;SDS011;4701;51.566;6.776;2022-10-16T15:08:24;1.77;;;1.13;;
9324;SDS011;4701;51.566;6.776;2022-10-16T15:10:26;2.80;;;1.40;;
9324;SDS011;4701;51.566;6.776;2022-10-16T15:12:30;6.17;;;1.70;;
9324;SDS011;4701;51.566;6.776;2022-10-16T15:14:31;3.77;;;1.63;;
9324;SDS011;4701;51.566;6.776;2022-10-16T15:16:35;3.40;;;1.70;;
9324;SDS011;4701;51.566;6.776;2022-10-16T15:18:37;4.97;;;1.70;;
9324;SDS011;4701;51.566;6.776;2022-10-16T15:20:39;3.50;;;1.40;;
9324;SDS011;4701;51.566;6.776;2022-10-16T15:22:40;4.23;;;1.33;;
9324;SDS011;4701;51.566;6.776;2022-10-16T15:24:42;2.57;;;1.10;;
9324;SDS011;4701;51.566;6.776;2022-10-16T15:26:44;6.47;;;1.40;;
9324;SDS011;4701;51.566;6.776;2022-10-16T15:28:49;3.90;;;1.20;;
9324;SDS011;4701;51.566;6.776;2022-10-16T15:30:51;1.67;;;1.00;;
9324;SDS011;4701;51.566;6.776;2022-10-16T15:32:55;6.27;;;1.20;;
9324;SDS011;4701;51.566;6.776;2022-10-16T15:34:57;4.37;;;1.10;;
9324;SDS011;4701;51.566;6.776;2022-10-16T15:37:02;3.40;;;1.37;;
9324;SDS011;4701;51.566;6.776;2022-10-16T15:39:04;3.10;;;1.13;;
9324;SDS011;4701;51.566;6.776;2022-10-16T15:41:06;2.97;;;1.13;;
9324;SDS011;4701;51.566;6.776;2022-10-16T15:43:07;5.90;;;1.27;;
9324;SDS011;4701;51.566;6.776;2022-10-16T15:45:11;3.50;;;1.30;;
9324;SDS011;4701;51.566;6.776;2022-10-16T15:47:14;2.83;;;1.43;;
9324;SDS011;4701;51.566;6.776;2022-10-16T15:49:17;1.83;;;1.00;;
9324;SDS011;4701;51.566;6.776;2022-10-16T15:51:19;2.90;;;1.10;;
9324;SDS011;4701;51.566;6.776;2022-10-16T15:53:20;1.90;;;1.17;;
9324;SDS011;4701;51.566;6.776;2022-10-16T15:55:22;2.93;;;1.13;;
9324;SDS011;4701;51.566;6.776;2022-10-16T15:57:24;6.63;;;1.60;;
9324;SDS011;4701;51.566;6.776;2022-10-16T15:59:26;3.20;;;1.17;;
9324;SDS011;4701;51.566;6.776;2022-10-16T16:01:31;3.07;;;1.23;;
9324;SDS011;4701;51.566;6.776;2022-10-16T16:03:34;3.67;;;1.23;;
9324;SDS011;4701;51.566;6.776;2022-10-16T16:05:38;6.73;;;1.43;;
9324;SDS011;4701;51.566;6.776;2022-10-16T16:07:40;4.00;;;1.10;;
9324;SDS011;4701;51.566;6.776;2022-10-16T16:09:42;5.53;;;1.27;;
9324;SDS011;4701;51.566;6.776;2022-10-16T16:11:45;4.23;;;1.40;;
9324;SDS011;4701;51.566;6.776;2022-10-16T16:13:46;4.70;;;1.40;;
9324;SDS011;4701;51.566;6.776;2022-10-16T16:15:48;7.13;;;2.67;;
9324;SDS011;4701;51.566;6.776;2022-10-16T16:17:50;2.53;;;1.20;;
9324;SDS011;4701;51.566;6.776;2022-10-16T16:19:52;4.33;;;1.17;;
9324;SDS011;4701;51.566;6.776;2022-10-16T16:21:55;2.63;;;1.30;;
9324;SDS011;4701;51.566;6.776;2022-10-16T16:23:56;5.00;;;1.60;;
9324;SDS011;4701;51.566;6.776;2022-10-16T16:26:02;2.90;;;1.40;;
9324;SDS011;4701;51.566;6.776;2022-10-16T16:28:05;2.73;;;1.17;;
9324;SDS011;4701;51.566;6.776;2022-10-16T16:30:07;4.53;;;1.80;;
9324;SDS011;4701;51.566;6.776;2022-10-16T16:32:11;3.27;;;1.30;;
9324;SDS011;4701;51.566;6.776;2022-10-16T16:34:13;5.00;;;1.70;;
9324;SDS011;4701;51.566;6.776;2022-10-16T16:36:14;3.70;;;1.27;;
9324;SDS011;4701;51.566;6.776;2022-10-16T16:38:19;2.97;;;1.63;;
9324;SDS011;4701;51.566;6.776;2022-10-16T16:40:21;5.93;;;1.40;;
9324;SDS011;4701;51.566;6.776;2022-10-16T16:42:23;4.60;;;1.73;;
9324;SDS011;4701;51.566;6.776;2022-10-16T16:44:25;3.50;;;1.17;;
9324;SDS011;4701;51.566;6.776;2022-10-16T16:46:27;4.27;;;1.73;;
9324;SDS011;4701;51.566;6.776;2022-10-16T16:48:29;8.93;;;6.63;;
9324;SDS011;4701;51.566;6.776;2022-10-16T16:50:34;4.87;;;2.00;;
9324;SDS011;4701;51.566;6.776;2022-10-16T16:52:36;3.00;;;1.30;;
9324;SDS011;4701;51.566;6.776;2022-10-16T16:54:39;4.70;;;1.70;;
9324;SDS011;4701;51.566;6.776;2022-10-16T16:56:41;3.57;;;1.50;;
9324;SDS011;4701;51.566;6.776;2022-10-16T16:58:44;4.50;;;1.30;;
9324;SDS011;4701;51.566;6.776;2022-10-16T17:00:46;4.03;;;1.20;;
9324;SDS011;4701;51.566;6.776;2022-10-16T17:02:48;2.37;;;1.40;;
9324;SDS011;4701;51.566;6.776;2022-10-16T17:04:50;2.97;;;1.30;;
9324;SDS011;4701;51.566;6.776;2022-10-16T17:06:52;5.67;;;1.80;;
9324;SDS011;4701;51.566;6.776;2022-10-16T17:08:55;7.07;;;1.83;;
9324;SDS011;4701;51.566;6.776;2022-10-16T17:10:59;3.20;;;1.50;;
9324;SDS011;4701;51.566;6.776;2022-10-16T17:13:01;3.60;;;1.83;;
9324;SDS011;4701;51.566;6.776;2022-10-16T17:15:02;4.83;;;1.67;;
9324;SDS011;4701;51.566;6.776;2022-10-16T17:17:06;7.47;;;2.20;;
9324;SDS011;4701;51.566;6.776;2022-10-16T17:19:10;4.33;;;1.40;;
9324;SDS011;4701;51.566;6.776;2022-10-16T17:21:13;3.57;;;1.60;;
9324;SDS011;4701;51.566;6.776;2022-10-16T17:23:16;4.50;;;1.70;;
9324;SDS011;4701;51.566;6.776;2022-10-16T17:25:19;5.40;;;2.10;;
9324;SDS011;4701;51.566;6.776;2022-10-16T17:27:22;8.23;;;2.10;;
9324;SDS011;4701;51.566;6.776;2022-10-16T17:29:24;4.77;;;2.17;;
9324;SDS011;4701;51.566;6.776;2022-10-16T17:31:27;6.23;;;1.70;;
9324;SDS011;4701;51.566;6.776;2022-10-16T17:33:31;4.63;;;1.80;;
9324;SDS011;4701;51.566;6.776;2022-10-16T17:35:35;6.00;;;1.80;;
9324;SDS011;4701;51.566;6.776;2022-10-16T17:37:38;5.63;;;2.10;;
9324;SDS011;4701;51.566;6.776;2022-10-16T17:39:41;7.23;;;1.97;;
9324;SDS011;4701;51.566;6.776;2022-10-16T17:41:43;6.13;;;2.20;;
9324;SDS011;4701;51.566;6.776;2022-10-16T17:43:47;6.37;;;1.83;;
9324;SDS011;4701;51.566;6.776;2022-10-16T17:45:49;5.77;;;2.00;;
9324;SDS011;4701;51.566;6.776;2022-10-16T17:47:51;4.70;;;1.77;;
9324;SDS011;4701;51.566;6.776;2022-10-16T17:49:53;4.07;;;1.97;;
9324;SDS011;4701;51.566;6.776;2022-10-16T17:51:56;4.00;;;1.90;;
9324;SDS011;4701;51.566;6.776;2022-10-16T17:53:59;5.83;;;1.73;;
9324;SDS011;4701;51.566;6.776;2022-10-16T17:56:02;4.00;;;1.60;;
9324;SDS011;4701;51.566;6.776;2022-10-16T17:58:05;3.20;;;1.70;;
9324;SDS011;4701;51.566;6.776;2022-10-16T18:00:09;5.80;;;2.33;;
9324;SDS011;4701;51.566;6.776;2022-10-16T18:02:12;4.53;;;1.83;;
9324;SDS011;4701;51.566;6.776;2022-10-16T18:04:14;6.90;;;1.97;;